createdAt,value
2023-05-21T00:03:47.631Z,71.42
2023-05-21T00:08:51.021Z,71.60
2023-05-21T00:13:54.286Z,71.78
2023-05-21T00:18:58.303Z,72.01
2023-05-21T00:24:01.402Z,72.25
2023-05-21T00:33:29.521Z,72.39
2023-05-21T00:38:33.248Z,72.21
2023-05-21T00:43:40.520Z,72.13
2023-05-21T00:48:46.529Z,72.31
2023-05-21T00:53:52.751Z,72.36
2023-05-21T00:58:59.665Z,72.48
2023-05-21T01:04:03.615Z,72.71
2023-05-21T01:09:07.482Z,72.54
2023-05-21T01:14:12.920Z,72.42
2023-05-21T01:19:17.089Z,72.32
2023-05-21T01:24:20.377Z,72.11
2023-05-21T01:33:47.519Z,72.11
2023-05-21T01:39:25.065Z,71.99
2023-05-21T01:44:29.350Z,71.71
2023-05-21T01:49:33.529Z,71.57
2023-05-21T01:54:36.761Z,71.26
2023-05-21T01:59:39.843Z,71.13
2023-05-21T02:04:44.330Z,71.03
2023-05-21T02:09:47.595Z,70.97
2023-05-21T02:14:51.303Z,70.84
2023-05-21T02:19:54.601Z,70.89
2023-05-21T02:24:57.722Z,70.48
2023-05-21T02:30:02.016Z,70.29
2023-05-21T02:35:06.056Z,70.12
2023-05-21T02:40:12.697Z,69.99
2023-05-21T02:45:16.046Z,69.92
2023-05-21T02:50:19.570Z,69.84
2023-05-21T02:55:33.019Z,69.53
2023-05-21T03:00:38.818Z,69.52
2023-05-21T03:05:42.155Z,69.33
2023-05-21T03:10:45.320Z,69.37
2023-05-21T03:15:48.510Z,69.39
2023-05-21T03:20:51.797Z,69.47
2023-05-21T03:25:55.065Z,69.40
2023-05-21T03:33:31.568Z,69.07
2023-05-21T03:38:37.116Z,69.03
2023-05-21T03:43:41.320Z,69.10
2023-05-21T03:48:45.043Z,69.03
2023-05-21T03:53:50.437Z,68.94
2023-05-21T03:58:53.958Z,68.77
2023-05-21T04:03:57.499Z,68.89
2023-05-21T04:09:01.452Z,68.92
2023-05-21T04:14:11.659Z,68.88
2023-05-21T04:19:15.183Z,68.82
2023-05-21T04:24:18.533Z,68.65
2023-05-21T04:33:29.074Z,68.43
2023-05-21T04:38:32.681Z,68.20
2023-05-21T04:43:35.792Z,68.13
2023-05-21T04:48:39.830Z,67.85
2023-05-21T04:53:45.031Z,67.75
2023-05-21T04:58:49.418Z,67.11
2023-05-21T05:03:53.627Z,66.60
2023-05-21T05:08:57.119Z,66.08
2023-05-21T05:14:01.224Z,65.69
2023-05-21T05:19:04.745Z,65.70
2023-05-21T05:24:07.919Z,65.36
2023-05-21T05:33:28.970Z,64.85
2023-05-21T05:38:32.316Z,64.82
2023-05-21T05:43:35.714Z,64.56
2023-05-21T05:48:39.827Z,64.36
2023-05-21T05:53:43.194Z,63.92
2023-05-21T05:58:47.921Z,63.86
2023-05-21T06:03:53.101Z,63.64
2023-05-21T06:08:56.291Z,63.52
2023-05-21T06:14:02.866Z,63.33
2023-05-21T06:19:06.199Z,63.04
2023-05-21T06:24:09.429Z,63.16
2023-05-21T06:29:14.850Z,63.22
2023-05-21T06:34:19.047Z,63.13
2023-05-21T06:39:22.396Z,62.88
2023-05-21T06:44:25.820Z,62.91
2023-05-21T06:50:02.257Z,62.61
2023-05-21T06:55:06.627Z,62.58
2023-05-21T07:00:26.327Z,62.47
2023-05-21T07:05:30.213Z,62.71
2023-05-21T07:10:33.421Z,62.65
2023-05-21T09:28:31.149Z,58.44
2023-05-21T09:33:34.502Z,58.22
2023-05-21T09:38:38.840Z,58.16
2023-05-21T09:43:44.449Z,58.08
2023-05-21T09:48:47.918Z,57.07
2023-05-21T09:54:00.405Z,56.69
2023-05-21T09:59:06.081Z,56.22
2023-05-21T10:04:10.391Z,55.61
2023-05-21T10:09:18.972Z,54.64
2023-05-21T10:14:25.633Z,54.48
2023-05-21T10:19:32.168Z,53.71
2023-05-21T10:24:36.582Z,52.79
2023-05-21T10:33:32.152Z,51.68
2023-05-21T10:38:37.764Z,51.22
2023-05-21T10:44:02.573Z,51.25
2023-05-21T10:49:24.265Z,50.93
2023-05-21T10:54:50.155Z,51.03
2023-05-21T10:59:54.076Z,50.47
2023-05-21T11:05:00.922Z,50.11
2023-05-21T11:10:51.233Z,50.09
2023-05-21T11:15:59.982Z,50.13
2023-05-21T11:21:06.460Z,49.84
2023-05-21T11:26:09.742Z,49.75
2023-05-21T11:31:47.553Z,49.06
2023-05-21T11:37:17.134Z,48.37
2023-05-21T11:42:34.366Z,46.87
2023-05-21T11:47:37.589Z,44.92
2023-05-21T11:52:45.635Z,43.64
2023-05-21T11:57:55.749Z,41.93
2023-05-21T12:02:59.547Z,42.10
2023-05-21T12:08:02.760Z,42.45
2023-05-21T12:13:06.873Z,42.05
2023-05-21T12:18:10.107Z,41.54
2023-05-21T12:23:25.912Z,41.02
2023-05-21T12:28:29.926Z,40.46
2023-05-21T12:33:36.034Z,39.60
2023-05-21T12:38:39.347Z,39.77
2023-05-21T12:43:42.877Z,39.90
2023-05-21T12:48:58.034Z,39.99
2023-05-21T12:54:02.607Z,39.73
2023-05-21T12:59:06.004Z,39.97
2023-05-21T13:04:09.727Z,40.06
2023-05-21T13:09:14.266Z,39.32
2023-05-21T13:14:17.482Z,39.13
2023-05-21T13:19:22.557Z,38.56
2023-05-21T13:24:25.907Z,37.63
2023-05-21T13:29:29.209Z,37.24
2023-05-21T13:34:32.838Z,37.15
2023-05-21T13:39:36.347Z,36.83
2023-05-21T13:44:39.626Z,36.74
2023-05-21T13:49:43.019Z,36.49
2023-05-21T13:54:46.172Z,36.27
2023-05-21T13:59:50.803Z,35.94
2023-05-21T14:04:54.128Z,35.74
2023-05-21T14:09:57.598Z,36.23
2023-05-21T14:15:03.866Z,35.77
2023-05-21T14:20:12.157Z,35.58
2023-05-21T14:25:17.002Z,36.31
2023-05-21T14:33:34.200Z,37.04
2023-05-21T14:38:38.956Z,37.26
2023-05-21T14:43:44.099Z,38.03
2023-05-21T14:48:48.445Z,38.52
2023-05-21T14:53:54.580Z,38.68
2023-05-21T14:58:58.925Z,39.10
2023-05-21T15:04:04.910Z,39.22
2023-05-21T15:09:09.639Z,39.92
2023-05-21T15:14:27.410Z,40.17
2023-05-21T15:19:32.505Z,40.38
2023-05-21T15:24:37.435Z,40.75
2023-05-21T15:33:33.169Z,41.15
2023-05-21T15:38:37.297Z,41.58
2023-05-21T15:43:46.271Z,41.47
2023-05-21T15:49:02.256Z,41.77
2023-05-21T15:54:06.487Z,41.84
2023-05-21T15:59:09.644Z,41.83
2023-05-21T16:04:16.500Z,42.03
2023-05-21T16:09:25.879Z,42.45
2023-05-21T16:14:29.606Z,42.67
2023-05-21T16:19:32.873Z,42.99
2023-05-21T16:24:36.166Z,43.12
2023-05-21T16:33:28.954Z,43.52
2023-05-21T16:38:32.100Z,43.59
2023-05-21T16:43:39.522Z,43.58
2023-05-21T16:48:43.012Z,43.62
2023-05-21T16:53:46.360Z,43.72
2023-05-21T16:58:53.024Z,43.79
2023-05-21T17:03:56.729Z,43.45
2023-05-21T17:08:59.906Z,43.37
2023-05-21T17:14:03.238Z,43.51
2023-05-21T17:19:06.339Z,43.61
2023-05-21T17:24:09.467Z,43.48
2023-05-21T17:29:12.625Z,43.68
2023-05-21T17:34:23.487Z,44.32
2023-05-21T17:39:26.569Z,44.72
2023-05-21T17:44:29.643Z,44.67
2023-05-21T17:49:32.854Z,45.05
2023-05-21T17:54:36.038Z,45.33
2023-05-21T17:59:41.525Z,45.68
2023-05-21T18:04:44.655Z,46.02
2023-05-21T18:09:47.686Z,46.36
2023-05-21T18:14:50.795Z,46.75
2023-05-21T18:19:53.860Z,46.83
2023-05-21T18:24:56.980Z,47.05
2023-05-21T18:30:05.919Z,46.95
2023-05-21T18:35:13.783Z,46.82
2023-05-21T18:40:21.302Z,47.06
2023-05-21T18:45:24.517Z,47.60
2023-05-21T18:50:27.749Z,47.59
2023-05-21T18:55:31.186Z,47.91
2023-05-21T19:00:34.861Z,48.10
2023-05-21T19:05:38.296Z,47.72
2023-05-21T19:10:41.663Z,47.21
2023-05-21T19:15:47.330Z,47.25
2023-05-21T19:20:50.454Z,47.05
2023-05-21T19:25:53.655Z,47.13
2023-05-21T19:30:56.656Z,47.18
2023-05-21T19:35:59.961Z,47.41
2023-05-21T19:41:03.187Z,47.10
2023-05-21T19:46:06.509Z,46.93
2023-05-21T19:51:09.699Z,47.28
2023-05-21T19:56:13.106Z,47.29
2023-05-21T20:01:16.831Z,47.61
2023-05-21T20:06:20.968Z,47.54
2023-05-21T20:11:24.135Z,47.47
2023-05-21T20:16:28.200Z,47.42
2023-05-21T20:21:37.501Z,47.34
2023-05-21T20:26:40.892Z,47.62
2023-05-21T20:31:44.403Z,47.48
2023-05-21T20:36:47.673Z,47.62
2023-05-21T20:41:50.830Z,47.73
2023-05-21T20:46:54.302Z,47.89
2023-05-21T20:51:57.392Z,48.46
2023-05-21T20:57:00.507Z,48.22
2023-05-21T21:02:03.820Z,48.10
2023-05-21T21:07:09.429Z,47.86
2023-05-21T21:12:25.326Z,47.62
2023-05-21T21:17:29.878Z,47.54
2023-05-21T21:22:33.496Z,47.56
2023-05-21T21:27:36.573Z,47.46
2023-05-21T21:32:40.499Z,47.58
2023-05-21T21:37:43.643Z,47.74
2023-05-21T21:42:51.286Z,48.16
2023-05-21T21:47:57.867Z,47.91
2023-05-21T21:53:01.287Z,48.13
2023-05-21T21:58:04.470Z,47.92
2023-05-21T22:03:18.844Z,47.84
2023-05-21T22:08:25.820Z,47.92
2023-05-21T22:13:29.963Z,48.17
2023-05-21T22:18:40.933Z,48.41
2023-05-21T22:23:48.713Z,48.95
2023-05-21T22:28:51.775Z,48.98
2023-05-21T22:33:54.991Z,49.42
2023-05-21T22:38:58.899Z,49.53
2023-05-21T22:44:02.246Z,49.41
2023-05-21T22:49:05.445Z,49.70
2023-05-21T22:54:08.700Z,49.67
2023-05-21T22:59:11.839Z,49.64
2023-05-21T23:04:15.537Z,49.69
2023-05-21T23:09:18.766Z,49.74
2023-05-21T23:14:22.433Z,50.35
2023-05-21T23:19:25.629Z,50.60
2023-05-21T23:24:29.674Z,50.66
2023-05-21T23:29:32.862Z,50.71
2023-05-21T23:34:35.998Z,50.90
2023-05-21T23:39:39.040Z,50.96
2023-05-21T23:44:42.570Z,51.64
2023-05-21T23:49:45.606Z,52.42
2023-05-21T23:54:48.674Z,52.39
2023-05-21T23:59:51.830Z,52.18
